sensor_id;sensor_type;location;lat;lon;timestamp;temperature;humidity
429;DHT22;201;48.758;9.290;2023-06-24T00:02:00;16.50;1.00
429;DHT22;201;48.758;9.290;2023-06-24T00:04:26;16.40;1.00
429;DHT22;201;48.758;9.290;2023-06-24T00:06:52;16.40;1.00
429;DHT22;201;48.758;9.290;2023-06-24T00:09:18;16.30;1.00
429;DHT22;201;48.758;9.290;2023-06-24T00:11:43;16.30;1.00
429;DHT22;201;48.758;9.290;2023-06-24T00:14:09;16.30;1.00
429;DHT22;201;48.758;9.290;2023-06-24T00:16:36;16.30;1.00
429;DHT22;201;48.758;9.290;2023-06-24T00:19:02;16.30;1.00
429;DHT22;201;48.758;9.290;2023-06-24T00:21:28;16.20;1.00
429;DHT22;201;48.758;9.290;2023-06-24T00:23:57;16.20;1.00
429;DHT22;201;48.758;9.290;2023-06-24T00:26:24;16.20;1.00
429;DHT22;201;48.758;9.290;2023-06-24T00:28:49;16.20;1.00
429;DHT22;201;48.758;9.290;2023-06-24T00:31:15;16.10;1.00
429;DHT22;201;48.758;9.290;2023-06-24T00:33:40;16.10;1.00
429;DHT22;201;48.758;9.290;2023-06-24T00:36:06;16.20;1.00
429;DHT22;201;48.758;9.290;2023-06-24T00:38:39;16.10;1.00
429;DHT22;201;48.758;9.290;2023-06-24T00:41:07;16.10;1.00
429;DHT22;201;48.758;9.290;2023-06-24T00:43:33;16.00;1.00
429;DHT22;201;48.758;9.290;2023-06-24T00:46:00;16.00;1.00
429;DHT22;201;48.758;9.290;2023-06-24T00:48:25;16.00;1.00
429;DHT22;201;48.758;9.290;2023-06-24T00:50:51;16.00;1.00
429;DHT22;201;48.758;9.290;2023-06-24T00:53:18;16.00;1.00
429;DHT22;201;48.758;9.290;2023-06-24T00:55:47;16.00;1.00
429;DHT22;201;48.758;9.290;2023-06-24T00:58:14;16.00;1.00
429;DHT22;201;48.758;9.290;2023-06-24T01:00:42;15.90;1.00
429;DHT22;201;48.758;9.290;2023-06-24T01:03:10;16.00;1.00
429;DHT22;201;48.758;9.290;2023-06-24T01:05:43;15.90;1.00
429;DHT22;201;48.758;9.290;2023-06-24T01:08:09;15.80;1.00
429;DHT22;201;48.758;9.290;2023-06-24T01:10:41;15.80;1.00
429;DHT22;201;48.758;9.290;2023-06-24T01:13:07;15.90;1.00
429;DHT22;201;48.758;9.290;2023-06-24T01:15:33;15.90;1.00
429;DHT22;201;48.758;9.290;2023-06-24T01:18:24;15.90;1.00
429;DHT22;201;48.758;9.290;2023-06-24T01:21:17;15.90;1.00
429;DHT22;201;48.758;9.290;2023-06-24T01:32:04;15.80;1.00
429;DHT22;201;48.758;9.290;2023-06-24T01:34:36;15.80;1.00
429;DHT22;201;48.758;9.290;2023-06-24T01:40:04;15.70;1.00
429;DHT22;201;48.758;9.290;2023-06-24T01:42:38;15.70;1.00
429;DHT22;201;48.758;9.290;2023-06-24T01:45:07;15.50;1.00
429;DHT22;201;48.758;9.290;2023-06-24T01:47:34;15.50;1.00
429;DHT22;201;48.758;9.290;2023-06-24T01:50:02;15.50;1.00
429;DHT22;201;48.758;9.290;2023-06-24T01:52:29;15.40;1.00
429;DHT22;201;48.758;9.290;2023-06-24T01:54:56;15.30;1.00
429;DHT22;201;48.758;9.290;2023-06-24T01:57:24;15.30;1.00
429;DHT22;201;48.758;9.290;2023-06-24T01:59:53;15.20;1.00
429;DHT22;201;48.758;9.290;2023-06-24T02:02:21;15.30;1.00
429;DHT22;201;48.758;9.290;2023-06-24T02:04:48;15.20;1.00
429;DHT22;201;48.758;9.290;2023-06-24T02:07:15;15.20;1.00
429;DHT22;201;48.758;9.290;2023-06-24T02:09:43;15.20;1.00
429;DHT22;201;48.758;9.290;2023-06-24T02:12:10;15.30;1.00
429;DHT22;201;48.758;9.290;2023-06-24T02:14:37;15.30;1.00
429;DHT22;201;48.758;9.290;2023-06-24T02:17:05;15.40;1.00
429;DHT22;201;48.758;9.290;2023-06-24T02:19:32;15.30;1.00
429;DHT22;201;48.758;9.290;2023-06-24T02:21:59;15.30;1.00
429;DHT22;201;48.758;9.290;2023-06-24T02:24:26;15.30;1.00
429;DHT22;201;48.758;9.290;2023-06-24T02:26:53;15.30;1.00
429;DHT22;201;48.758;9.290;2023-06-24T02:29:20;15.20;1.00
429;DHT22;201;48.758;9.290;2023-06-24T02:31:46;15.10;1.00
429;DHT22;201;48.758;9.290;2023-06-24T02:34:12;15.10;1.00
429;DHT22;201;48.758;9.290;2023-06-24T02:36:37;15.10;1.00
429;DHT22;201;48.758;9.290;2023-06-24T02:39:04;15.20;1.00
429;DHT22;201;48.758;9.290;2023-06-24T02:41:29;15.10;1.00
429;DHT22;201;48.758;9.290;2023-06-24T02:43:55;15.00;1.00
429;DHT22;201;48.758;9.290;2023-06-24T02:46:21;14.90;1.00
429;DHT22;201;48.758;9.290;2023-06-24T02:48:48;14.80;1.00
429;DHT22;201;48.758;9.290;2023-06-24T02:51:14;14.80;1.00
429;DHT22;201;48.758;9.290;2023-06-24T02:53:41;14.70;1.00
429;DHT22;201;48.758;9.290;2023-06-24T02:56:08;14.60;1.00
429;DHT22;201;48.758;9.290;2023-06-24T02:58:37;14.60;1.00
429;DHT22;201;48.758;9.290;2023-06-24T03:01:05;14.50;1.00
429;DHT22;201;48.758;9.290;2023-06-24T03:03:34;14.50;1.00
429;DHT22;201;48.758;9.290;2023-06-24T03:06:00;14.50;1.30
429;DHT22;201;48.758;9.290;2023-06-24T03:08:28;14.40;1.30
429;DHT22;201;48.758;9.290;2023-06-24T03:10:57;14.40;1.50
429;DHT22;201;48.758;9.290;2023-06-24T03:13:23;14.40;1.60
429;DHT22;201;48.758;9.290;2023-06-24T03:15:49;14.30;1.90
429;DHT22;201;48.758;9.290;2023-06-24T03:18:16;14.30;2.20
429;DHT22;201;48.758;9.290;2023-06-24T03:20:42;14.30;2.50
429;DHT22;201;48.758;9.290;2023-06-24T03:23:08;14.30;2.70
429;DHT22;201;48.758;9.290;2023-06-24T03:25:34;14.20;2.90
429;DHT22;201;48.758;9.290;2023-06-24T03:28:00;14.20;3.20
429;DHT22;201;48.758;9.290;2023-06-24T03:30:26;14.20;3.20
429;DHT22;201;48.758;9.290;2023-06-24T03:32:52;14.20;3.80
429;DHT22;201;48.758;9.290;2023-06-24T03:35:17;14.20;3.80
429;DHT22;201;48.758;9.290;2023-06-24T03:37:43;14.20;3.80
429;DHT22;201;48.758;9.290;2023-06-24T03:40:09;14.20;3.80
429;DHT22;201;48.758;9.290;2023-06-24T03:42:34;14.20;3.80
429;DHT22;201;48.758;9.290;2023-06-24T03:45:01;14.20;3.80
429;DHT22;201;48.758;9.290;2023-06-24T03:47:27;14.20;3.80
429;DHT22;201;48.758;9.290;2023-06-24T03:49:52;14.10;3.70
429;DHT22;201;48.758;9.290;2023-06-24T03:52:18;14.20;3.80
429;DHT22;201;48.758;9.290;2023-06-24T03:54:43;14.20;3.80
429;DHT22;201;48.758;9.290;2023-06-24T03:57:09;14.20;3.80
429;DHT22;201;48.758;9.290;2023-06-24T03:59:34;14.30;3.80
429;DHT22;201;48.758;9.290;2023-06-24T04:02:00;14.30;3.90
429;DHT22;201;48.758;9.290;2023-06-24T04:04:26;14.30;3.60
429;DHT22;201;48.758;9.290;2023-06-24T04:06:51;14.40;3.30
429;DHT22;201;48.758;9.290;2023-06-24T04:09:17;14.40;3.00
429;DHT22;201;48.758;9.290;2023-06-24T04:11:42;14.50;2.90
429;DHT22;201;48.758;9.290;2023-06-24T04:14:08;14.60;2.60
429;DHT22;201;48.758;9.290;2023-06-24T04:16:35;14.70;2.60
429;DHT22;201;48.758;9.290;2023-06-24T04:19:01;14.70;2.50
429;DHT22;201;48.758;9.290;2023-06-24T04:21:27;14.80;2.10
429;DHT22;201;48.758;9.290;2023-06-24T04:23:52;14.80;2.00
429;DHT22;201;48.758;9.290;2023-06-24T04:26:18;14.90;1.80
429;DHT22;201;48.758;9.290;2023-06-24T04:28:43;14.90;1.60
429;DHT22;201;48.758;9.290;2023-06-24T04:31:09;15.00;1.50
429;DHT22;201;48.758;9.290;2023-06-24T04:33:34;15.00;1.20
429;DHT22;201;48.758;9.290;2023-06-24T04:36:00;15.00;1.00
429;DHT22;201;48.758;9.290;2023-06-24T04:38:25;15.00;1.10
429;DHT22;201;48.758;9.290;2023-06-24T04:40:51;15.10;1.00
429;DHT22;201;48.758;9.290;2023-06-24T04:43:16;15.10;1.00
429;DHT22;201;48.758;9.290;2023-06-24T04:45:42;15.10;1.00
429;DHT22;201;48.758;9.290;2023-06-24T04:48:07;15.20;1.00
429;DHT22;201;48.758;9.290;2023-06-24T04:50:33;15.30;1.00
429;DHT22;201;48.758;9.290;2023-06-24T04:52:58;15.40;1.00
429;DHT22;201;48.758;9.290;2023-06-24T04:55:26;15.50;1.00
429;DHT22;201;48.758;9.290;2023-06-24T04:57:51;15.70;1.00
429;DHT22;201;48.758;9.290;2023-06-24T05:00:17;15.90;1.00
429;DHT22;201;48.758;9.290;2023-06-24T05:02:42;16.10;1.00
429;DHT22;201;48.758;9.290;2023-06-24T05:05:08;16.20;1.00
429;DHT22;201;48.758;9.290;2023-06-24T05:07:33;16.40;1.00
429;DHT22;201;48.758;9.290;2023-06-24T05:09:59;16.50;1.00
429;DHT22;201;48.758;9.290;2023-06-24T05:12:24;16.70;1.00
429;DHT22;201;48.758;9.290;2023-06-24T05:14:53;16.90;1.00
429;DHT22;201;48.758;9.290;2023-06-24T05:17:21;17.20;1.00
429;DHT22;201;48.758;9.290;2023-06-24T05:19:47;17.40;1.00
429;DHT22;201;48.758;9.290;2023-06-24T05:22:12;17.50;1.00
429;DHT22;201;48.758;9.290;2023-06-24T05:24:38;17.60;1.00
429;DHT22;201;48.758;9.290;2023-06-24T05:27:05;17.70;1.00
429;DHT22;201;48.758;9.290;2023-06-24T05:29:31;17.80;1.00
429;DHT22;201;48.758;9.290;2023-06-24T05:31:56;18.00;1.00
429;DHT22;201;48.758;9.290;2023-06-24T05:34:22;18.20;1.00
429;DHT22;201;48.758;9.290;2023-06-24T05:36:47;18.60;1.00
429;DHT22;201;48.758;9.290;2023-06-24T05:39:13;18.80;1.00
429;DHT22;201;48.758;9.290;2023-06-24T05:41:39;19.00;1.00
429;DHT22;201;48.758;9.290;2023-06-24T05:44:08;19.60;1.00
429;DHT22;201;48.758;9.290;2023-06-24T05:46:36;20.50;1.00
429;DHT22;201;48.758;9.290;2023-06-24T05:49:02;21.60;1.00
429;DHT22;201;48.758;9.290;2023-06-24T05:51:28;22.50;1.00
429;DHT22;201;48.758;9.290;2023-06-24T05:53:53;22.70;1.00
429;DHT22;201;48.758;9.290;2023-06-24T05:56:20;22.90;1.00
429;DHT22;201;48.758;9.290;2023-06-24T05:58:46;23.10;1.00
429;DHT22;201;48.758;9.290;2023-06-24T06:01:12;23.40;1.00
429;DHT22;201;48.758;9.290;2023-06-24T06:03:37;24.20;1.00
429;DHT22;201;48.758;9.290;2023-06-24T06:06:03;24.70;1.00
429;DHT22;201;48.758;9.290;2023-06-24T06:08:29;25.00;1.00
429;DHT22;201;48.758;9.290;2023-06-24T06:10:54;25.60;1.00
429;DHT22;201;48.758;9.290;2023-06-24T06:13:20;25.80;1.00
429;DHT22;201;48.758;9.290;2023-06-24T06:15:45;25.60;1.00
429;DHT22;201;48.758;9.290;2023-06-24T06:18:12;25.20;1.00
429;DHT22;201;48.758;9.290;2023-06-24T06:20:37;25.30;1.00
429;DHT22;201;48.758;9.290;2023-06-24T06:23:03;25.70;1.00
429;DHT22;201;48.758;9.290;2023-06-24T06:25:28;26.70;1.00
429;DHT22;201;48.758;9.290;2023-06-24T06:27:54;27.40;1.00
429;DHT22;201;48.758;9.290;2023-06-24T06:30:19;27.70;1.00
429;DHT22;201;48.758;9.290;2023-06-24T06:32:45;28.70;1.00
429;DHT22;201;48.758;9.290;2023-06-24T06:35:10;28.80;1.00
429;DHT22;201;48.758;9.290;2023-06-24T06:37:36;29.30;1.00
429;DHT22;201;48.758;9.290;2023-06-24T06:40:02;30.10;1.00
429;DHT22;201;48.758;9.290;2023-06-24T06:42:29;30.90;1.00
429;DHT22;201;48.758;9.290;2023-06-24T06:44:54;31.50;1.00
429;DHT22;201;48.758;9.290;2023-06-24T06:47:20;32.30;1.00
429;DHT22;201;48.758;9.290;2023-06-24T06:49:46;33.10;1.00
429;DHT22;201;48.758;9.290;2023-06-24T06:52:11;34.00;1.00
429;DHT22;201;48.758;9.290;2023-06-24T06:54:37;34.60;1.00
429;DHT22;201;48.758;9.290;2023-06-24T06:57:03;34.80;1.00
429;DHT22;201;48.758;9.290;2023-06-24T06:59:30;34.50;1.00
429;DHT22;201;48.758;9.290;2023-06-24T07:01:56;34.90;1.00
429;DHT22;201;48.758;9.290;2023-06-24T07:04:21;35.70;1.00
429;DHT22;201;48.758;9.290;2023-06-24T07:06:47;36.50;1.00
429;DHT22;201;48.758;9.290;2023-06-24T07:09:13;37.10;1.00
429;DHT22;201;48.758;9.290;2023-06-24T07:11:38;37.50;1.00
429;DHT22;201;48.758;9.290;2023-06-24T07:14:03;38.00;1.00
429;DHT22;201;48.758;9.290;2023-06-24T07:16:29;38.30;1.00
429;DHT22;201;48.758;9.290;2023-06-24T07:18:54;38.60;1.00
429;DHT22;201;48.758;9.290;2023-06-24T07:21:20;38.90;1.00
429;DHT22;201;48.758;9.290;2023-06-24T07:23:46;38.60;1.00
429;DHT22;201;48.758;9.290;2023-06-24T07:26:11;38.80;1.00
429;DHT22;201;48.758;9.290;2023-06-24T07:28:37;38.40;1.00
429;DHT22;201;48.758;9.290;2023-06-24T07:31:02;38.60;1.00
429;DHT22;201;48.758;9.290;2023-06-24T07:33:28;38.60;1.00
429;DHT22;201;48.758;9.290;2023-06-24T07:35:56;38.00;1.00
429;DHT22;201;48.758;9.290;2023-06-24T07:38:21;38.00;1.00
429;DHT22;201;48.758;9.290;2023-06-24T07:40:47;37.90;1.00
429;DHT22;201;48.758;9.290;2023-06-24T07:43:13;38.30;1.00
429;DHT22;201;48.758;9.290;2023-06-24T07:45:38;38.90;1.00
429;DHT22;201;48.758;9.290;2023-06-24T07:48:04;39.60;1.00
429;DHT22;201;48.758;9.290;2023-06-24T07:50:30;39.60;1.00
429;DHT22;201;48.758;9.290;2023-06-24T07:52:56;39.80;1.00
429;DHT22;201;48.758;9.290;2023-06-24T07:55:22;40.80;1.00
429;DHT22;201;48.758;9.290;2023-06-24T07:57:48;41.30;1.00
429;DHT22;201;48.758;9.290;2023-06-24T08:00:14;41.60;1.00
429;DHT22;201;48.758;9.290;2023-06-24T08:02:40;42.20;1.00
429;DHT22;201;48.758;9.290;2023-06-24T08:05:06;42.60;1.00
429;DHT22;201;48.758;9.290;2023-06-24T08:07:32;42.40;1.00
429;DHT22;201;48.758;9.290;2023-06-24T08:09:58;42.60;1.00
429;DHT22;201;48.758;9.290;2023-06-24T08:12:23;43.10;1.00
429;DHT22;201;48.758;9.290;2023-06-24T08:14:49;43.30;1.00
429;DHT22;201;48.758;9.290;2023-06-24T08:17:14;43.20;1.00
429;DHT22;201;48.758;9.290;2023-06-24T08:19:39;43.50;1.00
429;DHT22;201;48.758;9.290;2023-06-24T08:22:05;43.80;1.00
429;DHT22;201;48.758;9.290;2023-06-24T08:24:31;43.90;1.00
429;DHT22;201;48.758;9.290;2023-06-24T08:26:57;43.80;1.00
429;DHT22;201;48.758;9.290;2023-06-24T08:29:22;43.90;1.00
429;DHT22;201;48.758;9.290;2023-06-24T08:31:48;44.60;1.00
429;DHT22;201;48.758;9.290;2023-06-24T08:34:13;44.70;1.00
429;DHT22;201;48.758;9.290;2023-06-24T08:36:39;44.60;1.00
429;DHT22;201;48.758;9.290;2023-06-24T08:39:04;44.90;1.00
429;DHT22;201;48.758;9.290;2023-06-24T08:41:30;44.00;1.00
429;DHT22;201;48.758;9.290;2023-06-24T08:43:56;43.20;1.00
429;DHT22;201;48.758;9.290;2023-06-24T08:46:24;43.40;1.00
429;DHT22;201;48.758;9.290;2023-06-24T08:48:59;43.70;1.00
429;DHT22;201;48.758;9.290;2023-06-24T08:51:27;44.10;1.00
429;DHT22;201;48.758;9.290;2023-06-24T08:53:55;44.80;1.00
429;DHT22;201;48.758;9.290;2023-06-24T08:56:21;44.40;1.00
429;DHT22;201;48.758;9.290;2023-06-24T08:58:46;44.50;1.00
429;DHT22;201;48.758;9.290;2023-06-24T09:01:12;44.20;1.00
429;DHT22;201;48.758;9.290;2023-06-24T09:03:38;44.70;1.00
429;DHT22;201;48.758;9.290;2023-06-24T09:06:03;45.60;1.00
429;DHT22;201;48.758;9.290;2023-06-24T09:08:29;45.70;1.00
429;DHT22;201;48.758;9.290;2023-06-24T09:10:55;44.30;1.00
429;DHT22;201;48.758;9.290;2023-06-24T09:13:21;43.80;1.00
429;DHT22;201;48.758;9.290;2023-06-24T09:15:48;43.80;1.00
429;DHT22;201;48.758;9.290;2023-06-24T09:18:14;45.00;1.00
429;DHT22;201;48.758;9.290;2023-06-24T09:20:42;46.00;1.00
429;DHT22;201;48.758;9.290;2023-06-24T09:23:10;45.60;1.00
429;DHT22;201;48.758;9.290;2023-06-24T09:25:36;46.30;1.00
429;DHT22;201;48.758;9.290;2023-06-24T09:28:02;46.00;1.00
429;DHT22;201;48.758;9.290;2023-06-24T09:30:28;45.10;1.00
429;DHT22;201;48.758;9.290;2023-06-24T09:32:54;45.40;1.00
429;DHT22;201;48.758;9.290;2023-06-24T09:35:24;43.90;1.00
429;DHT22;201;48.758;9.290;2023-06-24T09:37:54;43.20;1.00
429;DHT22;201;48.758;9.290;2023-06-24T09:40:20;43.70;1.00
429;DHT22;201;48.758;9.290;2023-06-24T09:42:56;43.80;1.00
429;DHT22;201;48.758;9.290;2023-06-24T09:45:26;45.00;1.00
429;DHT22;201;48.758;9.290;2023-06-24T09:47:53;46.10;1.00
429;DHT22;201;48.758;9.290;2023-06-24T09:50:19;46.00;1.00
429;DHT22;201;48.758;9.290;2023-06-24T09:52:45;45.10;1.00
429;DHT22;201;48.758;9.290;2023-06-24T09:55:13;45.70;1.00
429;DHT22;201;48.758;9.290;2023-06-24T09:57:39;45.30;1.00
429;DHT22;201;48.758;9.290;2023-06-24T10:00:07;43.90;1.00
429;DHT22;201;48.758;9.290;2023-06-24T10:02:35;44.20;1.00
429;DHT22;201;48.758;9.290;2023-06-24T10:05:01;44.60;1.00
429;DHT22;201;48.758;9.290;2023-06-24T10:07:28;43.80;1.00
429;DHT22;201;48.758;9.290;2023-06-24T10:09:53;41.80;1.00
429;DHT22;201;48.758;9.290;2023-06-24T10:12:20;40.20;1.00
429;DHT22;201;48.758;9.290;2023-06-24T10:14:45;38.90;1.00
429;DHT22;201;48.758;9.290;2023-06-24T10:17:11;37.40;1.00
429;DHT22;201;48.758;9.290;2023-06-24T10:19:38;36.90;1.00
429;DHT22;201;48.758;9.290;2023-06-24T10:22:07;37.00;1.00
429;DHT22;201;48.758;9.290;2023-06-24T10:24:35;36.20;1.00
429;DHT22;201;48.758;9.290;2023-06-24T10:27:02;35.20;1.00
429;DHT22;201;48.758;9.290;2023-06-24T10:29:35;34.00;1.00
429;DHT22;201;48.758;9.290;2023-06-24T10:32:06;33.50;1.00
429;DHT22;201;48.758;9.290;2023-06-24T10:34:40;33.10;1.00
429;DHT22;201;48.758;9.290;2023-06-24T10:37:11;32.60;1.00
429;DHT22;201;48.758;9.290;2023-06-24T10:39:40;32.20;1.00
429;DHT22;201;48.758;9.290;2023-06-24T10:44:58;31.20;1.00
429;DHT22;201;48.758;9.290;2023-06-24T10:47:25;31.20;1.00
429;DHT22;201;48.758;9.290;2023-06-24T10:49:51;32.00;1.00
429;DHT22;201;48.758;9.290;2023-06-24T10:52:20;32.30;1.00
429;DHT22;201;48.758;9.290;2023-06-24T10:54:46;32.40;1.00
429;DHT22;201;48.758;9.290;2023-06-24T10:57:12;31.40;1.00
429;DHT22;201;48.758;9.290;2023-06-24T11:02:14;30.50;1.00
429;DHT22;201;48.758;9.290;2023-06-24T11:04:50;30.00;1.00
429;DHT22;201;48.758;9.290;2023-06-24T11:07:24;29.40;1.00
429;DHT22;201;48.758;9.290;2023-06-24T11:09:54;28.80;1.00
429;DHT22;201;48.758;9.290;2023-06-24T11:12:24;28.60;1.00
429;DHT22;201;48.758;9.290;2023-06-24T11:14:50;28.80;1.00
429;DHT22;201;48.758;9.290;2023-06-24T11:17:16;29.30;1.00
429;DHT22;201;48.758;9.290;2023-06-24T11:19:41;29.70;1.00
429;DHT22;201;48.758;9.290;2023-06-24T11:22:09;29.90;1.00
429;DHT22;201;48.758;9.290;2023-06-24T11:24:35;30.20;1.00
429;DHT22;201;48.758;9.290;2023-06-24T11:27:01;30.40;1.00
429;DHT22;201;48.758;9.290;2023-06-24T11:29:32;30.30;1.00
429;DHT22;201;48.758;9.290;2023-06-24T11:31:58;30.10;1.00
429;DHT22;201;48.758;9.290;2023-06-24T11:34:23;30.50;1.00
429;DHT22;201;48.758;9.290;2023-06-24T11:36:49;30.70;1.00
429;DHT22;201;48.758;9.290;2023-06-24T11:39:21;30.70;1.00
429;DHT22;201;48.758;9.290;2023-06-24T11:41:47;31.10;1.00
429;DHT22;201;48.758;9.290;2023-06-24T11:44:13;31.10;1.00
429;DHT22;201;48.758;9.290;2023-06-24T11:46:38;30.70;1.00
429;DHT22;201;48.758;9.290;2023-06-24T11:49:05;30.60;1.00
429;DHT22;201;48.758;9.290;2023-06-24T11:51:32;30.80;1.00
429;DHT22;201;48.758;9.290;2023-06-24T11:54:03;30.40;1.00
429;DHT22;201;48.758;9.290;2023-06-24T11:56:39;30.00;1.00
429;DHT22;201;48.758;9.290;2023-06-24T11:59:05;30.00;1.00
429;DHT22;201;48.758;9.290;2023-06-24T12:01:34;30.00;1.00
429;DHT22;201;48.758;9.290;2023-06-24T12:04:10;29.60;1.00
429;DHT22;201;48.758;9.290;2023-06-24T12:06:36;29.40;1.00
429;DHT22;201;48.758;9.290;2023-06-24T12:09:01;29.40;1.00
429;DHT22;201;48.758;9.290;2023-06-24T12:11:27;29.60;1.00
429;DHT22;201;48.758;9.290;2023-06-24T12:13:53;29.20;1.00
429;DHT22;201;48.758;9.290;2023-06-24T12:16:18;28.90;1.00
429;DHT22;201;48.758;9.290;2023-06-24T12:18:44;28.70;1.00
429;DHT22;201;48.758;9.290;2023-06-24T12:21:10;28.20;1.00
429;DHT22;201;48.758;9.290;2023-06-24T12:23:36;28.10;1.00
429;DHT22;201;48.758;9.290;2023-06-24T12:26:01;28.30;1.00
429;DHT22;201;48.758;9.290;2023-06-24T12:28:27;28.80;1.00
429;DHT22;201;48.758;9.290;2023-06-24T12:30:52;29.30;1.00
429;DHT22;201;48.758;9.290;2023-06-24T12:33:18;29.70;1.00
429;DHT22;201;48.758;9.290;2023-06-24T12:35:46;30.00;1.00
429;DHT22;201;48.758;9.290;2023-06-24T12:38:11;30.00;1.00
429;DHT22;201;48.758;9.290;2023-06-24T12:40:37;30.10;1.00
429;DHT22;201;48.758;9.290;2023-06-24T12:43:02;30.20;1.00
429;DHT22;201;48.758;9.290;2023-06-24T12:45:29;30.30;1.00
429;DHT22;201;48.758;9.290;2023-06-24T12:47:55;30.30;1.00
429;DHT22;201;48.758;9.290;2023-06-24T12:50:20;29.70;1.00
429;DHT22;201;48.758;9.290;2023-06-24T12:52:46;29.00;1.00
429;DHT22;201;48.758;9.290;2023-06-24T12:55:12;28.60;1.00
429;DHT22;201;48.758;9.290;2023-06-24T12:57:37;28.40;1.00
429;DHT22;201;48.758;9.290;2023-06-24T13:00:04;28.30;1.00
429;DHT22;201;48.758;9.290;2023-06-24T13:02:34;28.00;1.00
429;DHT22;201;48.758;9.290;2023-06-24T13:04:59;27.80;1.00
429;DHT22;201;48.758;9.290;2023-06-24T13:07:25;27.50;1.00
429;DHT22;201;48.758;9.290;2023-06-24T13:09:50;27.20;1.00
429;DHT22;201;48.758;9.290;2023-06-24T13:12:16;27.40;1.00
429;DHT22;201;48.758;9.290;2023-06-24T13:14:41;27.60;1.00
429;DHT22;201;48.758;9.290;2023-06-24T13:17:07;27.90;1.00
429;DHT22;201;48.758;9.290;2023-06-24T13:19:32;28.20;1.00
429;DHT22;201;48.758;9.290;2023-06-24T13:21:58;28.40;1.00
429;DHT22;201;48.758;9.290;2023-06-24T13:24:24;28.50;1.00
429;DHT22;201;48.758;9.290;2023-06-24T13:26:51;28.50;1.00
429;DHT22;201;48.758;9.290;2023-06-24T13:29:16;28.30;1.00
429;DHT22;201;48.758;9.290;2023-06-24T13:31:42;28.00;1.00
429;DHT22;201;48.758;9.290;2023-06-24T13:34:07;28.00;1.00
429;DHT22;201;48.758;9.290;2023-06-24T13:36:38;28.20;1.00
429;DHT22;201;48.758;9.290;2023-06-24T13:39:07;28.20;1.00
429;DHT22;201;48.758;9.290;2023-06-24T13:41:33;28.20;1.00
429;DHT22;201;48.758;9.290;2023-06-24T13:44:03;27.90;1.00
429;DHT22;201;48.758;9.290;2023-06-24T13:46:29;27.90;1.00
429;DHT22;201;48.758;9.290;2023-06-24T13:48:56;27.90;1.00
429;DHT22;201;48.758;9.290;2023-06-24T13:51:22;28.00;1.00
429;DHT22;201;48.758;9.290;2023-06-24T13:53:49;28.20;1.00
429;DHT22;201;48.758;9.290;2023-06-24T13:56:18;28.30;1.00
429;DHT22;201;48.758;9.290;2023-06-24T13:58:45;28.30;1.00
429;DHT22;201;48.758;9.290;2023-06-24T14:01:11;28.10;1.00
429;DHT22;201;48.758;9.290;2023-06-24T14:03:36;28.10;1.00
429;DHT22;201;48.758;9.290;2023-06-24T14:06:02;28.10;1.00
429;DHT22;201;48.758;9.290;2023-06-24T14:08:29;28.20;1.00
429;DHT22;201;48.758;9.290;2023-06-24T14:10:56;28.20;1.00
429;DHT22;201;48.758;9.290;2023-06-24T14:13:22;28.00;1.00
429;DHT22;201;48.758;9.290;2023-06-24T14:15:47;28.00;1.00
429;DHT22;201;48.758;9.290;2023-06-24T14:18:13;28.30;1.00
429;DHT22;201;48.758;9.290;2023-06-24T14:20:38;28.40;1.00
429;DHT22;201;48.758;9.290;2023-06-24T14:23:05;28.60;1.00
429;DHT22;201;48.758;9.290;2023-06-24T14:25:30;28.70;1.00
429;DHT22;201;48.758;9.290;2023-06-24T14:27:56;28.80;1.00
429;DHT22;201;48.758;9.290;2023-06-24T14:30:21;28.60;1.00
429;DHT22;201;48.758;9.290;2023-06-24T14:32:47;28.40;1.00
429;DHT22;201;48.758;9.290;2023-06-24T14:35:13;28.10;1.00
429;DHT22;201;48.758;9.290;2023-06-24T14:37:38;27.70;1.00
429;DHT22;201;48.758;9.290;2023-06-24T14:40:04;27.20;1.00
429;DHT22;201;48.758;9.290;2023-06-24T14:42:30;27.10;1.00
429;DHT22;201;48.758;9.290;2023-06-24T14:44:55;27.10;1.00
429;DHT22;201;48.758;9.290;2023-06-24T14:47:21;27.20;1.00
429;DHT22;201;48.758;9.290;2023-06-24T14:49:46;27.40;1.00
429;DHT22;201;48.758;9.290;2023-06-24T14:52:12;27.50;1.00
429;DHT22;201;48.758;9.290;2023-06-24T14:54:38;27.50;1.00
429;DHT22;201;48.758;9.290;2023-06-24T14:57:03;27.60;1.00
429;DHT22;201;48.758;9.290;2023-06-24T14:59:29;27.70;1.00
429;DHT22;201;48.758;9.290;2023-06-24T15:01:54;27.60;1.00
429;DHT22;201;48.758;9.290;2023-06-24T15:04:20;27.70;1.00
429;DHT22;201;48.758;9.290;2023-06-24T15:06:45;27.50;1.00
429;DHT22;201;48.758;9.290;2023-06-24T15:09:11;27.20;1.00
429;DHT22;201;48.758;9.290;2023-06-24T15:11:36;26.90;1.00
429;DHT22;201;48.758;9.290;2023-06-24T15:14:02;26.90;1.00
429;DHT22;201;48.758;9.290;2023-06-24T15:16:28;26.90;1.00
429;DHT22;201;48.758;9.290;2023-06-24T15:18:53;27.10;1.00
429;DHT22;201;48.758;9.290;2023-06-24T15:21:19;27.20;1.00
429;DHT22;201;48.758;9.290;2023-06-24T15:23:46;27.40;1.00
429;DHT22;201;48.758;9.290;2023-06-24T15:26:11;27.50;1.00
429;DHT22;201;48.758;9.290;2023-06-24T15:28:37;27.60;1.00
429;DHT22;201;48.758;9.290;2023-06-24T15:31:03;27.60;1.00
429;DHT22;201;48.758;9.290;2023-06-24T15:33:29;27.60;1.00
429;DHT22;201;48.758;9.290;2023-06-24T15:35:54;27.50;1.00
429;DHT22;201;48.758;9.290;2023-06-24T15:38:20;27.60;1.00
429;DHT22;201;48.758;9.290;2023-06-24T15:40:46;27.50;1.00
429;DHT22;201;48.758;9.290;2023-06-24T15:43:11;27.40;1.00
429;DHT22;201;48.758;9.290;2023-06-24T15:45:37;27.50;1.00
429;DHT22;201;48.758;9.290;2023-06-24T15:48:04;27.40;1.00
429;DHT22;201;48.758;9.290;2023-06-24T15:50:29;27.40;1.00
429;DHT22;201;48.758;9.290;2023-06-24T15:52:55;27.40;1.00
429;DHT22;201;48.758;9.290;2023-06-24T15:55:20;27.50;1.00
429;DHT22;201;48.758;9.290;2023-06-24T15:57:46;27.50;1.00
429;DHT22;201;48.758;9.290;2023-06-24T16:00:12;27.50;1.00
429;DHT22;201;48.758;9.290;2023-06-24T16:02:38;27.60;1.00
429;DHT22;201;48.758;9.290;2023-06-24T16:05:03;27.50;1.00
429;DHT22;201;48.758;9.290;2023-06-24T16:07:34;27.50;1.00
429;DHT22;201;48.758;9.290;2023-06-24T16:10:01;27.60;1.00
429;DHT22;201;48.758;9.290;2023-06-24T16:12:27;27.60;1.00
429;DHT22;201;48.758;9.290;2023-06-24T16:14:52;27.40;1.00
429;DHT22;201;48.758;9.290;2023-06-24T16:17:18;27.30;1.00
429;DHT22;201;48.758;9.290;2023-06-24T16:19:44;27.30;1.00
429;DHT22;201;48.758;9.290;2023-06-24T16:22:09;27.20;1.00
429;DHT22;201;48.758;9.290;2023-06-24T16:24:35;27.10;1.00
429;DHT22;201;48.758;9.290;2023-06-24T16:27:01;26.90;1.00
429;DHT22;201;48.758;9.290;2023-06-24T16:29:26;26.90;1.00
429;DHT22;201;48.758;9.290;2023-06-24T16:31:52;27.00;1.00
429;DHT22;201;48.758;9.290;2023-06-24T16:34:17;26.90;1.00
429;DHT22;201;48.758;9.290;2023-06-24T16:36:43;27.00;1.00
429;DHT22;201;48.758;9.290;2023-06-24T16:39:08;26.90;1.00
429;DHT22;201;48.758;9.290;2023-06-24T16:41:34;27.00;1.00
429;DHT22;201;48.758;9.290;2023-06-24T16:43:59;27.10;1.00
429;DHT22;201;48.758;9.290;2023-06-24T16:46:25;27.00;1.00
429;DHT22;201;48.758;9.290;2023-06-24T16:48:52;27.00;1.00
429;DHT22;201;48.758;9.290;2023-06-24T16:51:17;27.00;1.00
429;DHT22;201;48.758;9.290;2023-06-24T16:53:43;27.00;1.00
429;DHT22;201;48.758;9.290;2023-06-24T16:56:09;27.00;1.00
429;DHT22;201;48.758;9.290;2023-06-24T16:58:34;26.90;1.00
429;DHT22;201;48.758;9.290;2023-06-24T17:01:00;26.90;1.00
429;DHT22;201;48.758;9.290;2023-06-24T17:03:25;26.80;1.00